Main page
METAR-TAF:

METAR-TAF

Airports :

Rajmata Vijaya Raje Scindia Airport

Gwalior, India

latitude: 26-17-36N, longitude: 78-13-40E, elevation: 188 m

METAR: missing

Time: 03:58 (22:28 UTC)

Forecast

The report was made 18 hours and 58 minutes ago, at 03:30 UTC
Forecast valid from 20 at 06 UTC to 20 at 18 UTC
Wind 10 kt from the East
Visibility: 6000 m
Broken clouds at a height of 25000 ft
Becoming
from 20 at 14 UTC to 20 at 16 UTC
Wind 10 kt from the West/Northwest with gusts up to 20 kt
Visibility: 6000 m
Scattered clouds at a height of 3000 ft
Few clouds at a height of 3000 ft, Cumulonimbus.
Broken clouds at a height of 10000 ft
thunderstorm, rain
Becoming
from 20 at 17 UTC to 20 at 18 UTC
Wind 5 kt from the East
Visibility: 6000 m
Scattered clouds at a height of 10000 ft
Scattered clouds at a height of 25000 ft

TAF: VIGR 200330Z 2006/2018 09010KT 6000 BKN250 BECMG 2014/2016 29010G20KT 6000 TSRA SCT030 FEW030CB BKN100 BECMG 2017/2018 10005KT 6000 SCT100 SCT250

Weather observations and forecasts of more than 4000 airports (METAR and TAF reports).

The available stations are represented by yellow and red dots on the map.

Hover mouse over dot to see the name of the station.

Then click to see weather observations and forecasts.

To change the map : click on the green buttons with a black cross to zoom in, on the green button with a dash to zoom out, or on the green arrows for adjacent maps.


METAR-TAF: